createdAt,value
2022-08-17T04:00:32.933Z,990.33
2022-08-17T04:05:34.526Z,990.31
2022-08-17T04:10:33.927Z,990.40
2022-08-17T04:16:44.316Z,990.43
2022-08-17T04:21:44.264Z,990.42
2022-08-17T04:26:52.761Z,990.47
2022-08-17T04:31:45.158Z,990.56
2022-08-17T04:36:47.979Z,990.65
2022-08-17T04:41:45.045Z,990.67
2022-08-17T04:46:43.995Z,990.65
2022-08-17T04:51:49.668Z,990.57
2022-08-17T04:56:44.884Z,990.49
2022-08-17T05:01:43.913Z,990.52
2022-08-17T05:06:43.777Z,990.64
2022-08-17T05:11:44.809Z,990.60
2022-08-17T05:16:43.667Z,990.61
2022-08-17T05:21:43.608Z,990.55
2022-08-17T05:26:43.552Z,990.59
2022-08-17T05:31:43.499Z,990.68
2022-08-17T05:36:44.616Z,990.55
2022-08-17T05:41:43.399Z,990.53
2022-08-17T05:46:43.326Z,990.46
2022-08-17T05:51:43.274Z,990.63
2022-08-17T05:56:43.232Z,990.59
2022-08-17T06:01:43.158Z,990.57
2022-08-17T06:06:43.117Z,990.42
2022-08-17T06:11:43.061Z,990.37
2022-08-17T06:16:43.008Z,990.30
2022-08-17T06:21:42.953Z,990.48
2022-08-17T06:26:43.519Z,990.63
2022-08-17T06:31:42.841Z,990.95
2022-08-17T06:36:42.797Z,991.03
2022-08-17T06:41:42.737Z,991.18
2022-08-17T06:46:42.682Z,991.19
2022-08-17T06:51:42.630Z,991.32
2022-08-17T06:56:53.980Z,991.21
2022-08-17T07:01:43.558Z,991.42
2022-08-17T07:06:42.480Z,991.32
2022-08-17T07:11:42.414Z,991.44
2022-08-17T07:16:42.499Z,991.49
2022-08-17T07:21:42.303Z,991.50
2022-08-17T07:26:42.248Z,991.51
2022-08-17T07:31:42.204Z,991.56
2022-08-17T07:36:42.128Z,991.45
2022-08-17T07:41:57.930Z,991.49
2022-08-17T07:46:43.036Z,991.45
2022-08-17T07:51:41.979Z,991.52
2022-08-17T07:56:41.962Z,991.45
2022-08-17T08:01:42.542Z,991.58
2022-08-17T08:06:41.819Z,991.82
2022-08-17T08:11:44.315Z,991.91
2022-08-17T08:16:41.709Z,991.87
2022-08-17T08:21:41.658Z,991.81
2022-08-17T08:26:41.601Z,991.82
2022-08-17T08:31:42.524Z,991.93
2022-08-17T08:37:14.295Z,991.90
2022-08-17T08:41:42.446Z,991.96
2022-08-17T08:46:41.402Z,991.99
2022-08-17T08:51:41.340Z,991.93
2022-08-17T08:56:59.009Z,991.79
2022-08-17T09:01:42.350Z,991.82
2022-08-17T09:06:41.160Z,991.73
2022-08-17T09:12:01.245Z,991.79
2022-08-17T09:16:42.066Z,991.81
2022-08-17T09:21:48.801Z,991.84
2022-08-17T09:26:41.973Z,991.86
2022-08-17T09:31:49.283Z,991.86
2022-08-17T09:36:41.855Z,991.96
2022-08-17T09:41:48.704Z,991.99
2022-08-17T09:46:40.940Z,992.05
2022-08-17T09:51:40.684Z,992.04
2022-08-17T09:56:46.067Z,992.11
2022-08-17T10:01:41.681Z,992.23
2022-08-17T10:06:40.522Z,992.18
2022-08-17T10:11:44.743Z,992.22
2022-08-17T10:16:41.417Z,992.05
2022-08-17T10:21:47.397Z,992.07
2022-08-17T10:26:56.178Z,992.04
2022-08-17T10:31:41.251Z,991.95
2022-08-17T10:36:40.200Z,992.00
2022-08-17T10:41:40.606Z,992.07
2022-08-17T10:46:40.117Z,992.05
2022-08-17T10:51:40.031Z,991.94
2022-08-17T10:56:39.982Z,991.86
2022-08-17T11:01:39.939Z,991.87
2022-08-17T11:06:39.909Z,992.06
2022-08-17T11:11:39.827Z,992.07
2022-08-17T11:16:39.776Z,992.03
2022-08-17T11:21:39.701Z,992.06
2022-08-17T11:26:39.677Z,992.23
2022-08-17T11:31:39.975Z,992.15
2022-08-17T11:36:39.552Z,992.14
2022-08-17T11:41:39.499Z,992.12
2022-08-17T11:46:39.449Z,992.06
2022-08-17T11:51:39.407Z,992.08
2022-08-17T11:56:39.342Z,992.12
2022-08-17T12:01:39.293Z,992.05
2022-08-17T12:06:39.235Z,992.08
2022-08-17T12:11:58.700Z,992.18
2022-08-17T12:16:40.133Z,992.14
2022-08-17T12:21:39.078Z,992.19
2022-08-17T12:26:39.032Z,992.17
2022-08-17T12:31:38.969Z,992.00
2022-08-17T12:36:38.921Z,992.02
2022-08-17T12:41:38.871Z,991.96
2022-08-17T12:46:38.816Z,991.98
2022-08-17T12:51:38.745Z,992.00
2022-08-17T12:56:38.704Z,992.01
2022-08-17T13:01:38.737Z,991.98
2022-08-17T13:06:38.592Z,992.04
2022-08-17T13:11:38.546Z,992.09
2022-08-17T13:16:38.509Z,992.08
2022-08-17T13:21:38.431Z,992.08
2022-08-17T13:26:38.393Z,992.14
2022-08-17T13:31:44.034Z,992.08
2022-08-17T13:36:39.285Z,992.11
2022-08-17T13:41:38.226Z,992.11
2022-08-17T13:46:38.175Z,992.13
2022-08-17T13:51:38.139Z,992.12
2022-08-17T13:56:39.540Z,991.98
2022-08-17T14:01:38.103Z,992.14
2022-08-17T14:06:52.403Z,992.20
2022-08-17T14:11:38.916Z,992.13
2022-08-17T14:16:37.866Z,992.03
2022-08-17T14:21:37.815Z,991.93
2022-08-17T14:26:37.773Z,992.05
2022-08-17T14:31:37.814Z,992.05
2022-08-17T14:36:37.650Z,991.97
2022-08-17T14:41:37.604Z,992.05
2022-08-17T14:46:37.531Z,992.00
2022-08-17T14:51:37.491Z,991.99
2022-08-17T14:56:38.439Z,991.94
2022-08-17T15:01:37.411Z,991.90
2022-08-17T15:06:37.334Z,991.87
2022-08-17T15:11:37.323Z,991.86
2022-08-17T15:16:37.217Z,991.82
2022-08-17T15:21:37.178Z,991.75
2022-08-17T15:26:37.126Z,991.68
2022-08-17T15:31:37.052Z,991.71
2022-08-17T15:36:37.024Z,991.69
2022-08-17T15:41:36.957Z,991.64
2022-08-17T15:46:36.890Z,991.67
2022-08-17T15:51:36.845Z,991.60
2022-08-17T15:56:36.807Z,991.66
2022-08-17T16:03:15.378Z,991.58
2022-08-17T16:06:37.683Z,991.56
2022-08-17T16:11:36.626Z,991.69
2022-08-17T16:16:36.579Z,991.82
2022-08-17T16:21:42.871Z,991.95
2022-08-17T16:26:36.457Z,991.90
2022-08-17T16:31:36.415Z,991.96
2022-08-17T16:36:36.342Z,991.95
2022-08-17T16:41:36.297Z,991.99
2022-08-17T16:46:36.254Z,992.01
2022-08-17T16:51:36.180Z,991.97
2022-08-17T16:56:36.136Z,991.97
2022-08-17T17:01:36.102Z,991.89
2022-08-17T17:06:36.017Z,991.82
2022-08-17T17:11:35.975Z,991.91
2022-08-17T17:16:35.953Z,991.99
2022-08-17T17:21:35.858Z,991.97
2022-08-17T17:26:35.811Z,991.98
2022-08-17T17:31:35.768Z,992.00
2022-08-17T17:36:35.704Z,992.14
2022-08-17T17:41:35.652Z,992.21
2022-08-17T17:46:35.603Z,992.20
2022-08-17T17:51:58.006Z,992.30
2022-08-17T17:56:43.773Z,992.39
2022-08-17T18:01:36.503Z,992.38
2022-08-17T18:06:35.542Z,992.30
2022-08-17T18:11:35.445Z,992.30
2022-08-17T18:16:35.286Z,992.30
2022-08-17T18:21:35.205Z,992.19
2022-08-17T18:26:35.171Z,992.20
2022-08-17T18:31:35.112Z,992.34
2022-08-17T18:36:35.044Z,992.52
2022-08-17T18:41:35.010Z,992.52
2022-08-17T18:46:34.957Z,992.54
2022-08-17T18:51:41.474Z,992.61
2022-08-17T18:56:34.838Z,992.72
2022-08-17T19:01:46.932Z,992.87
2022-08-17T19:06:35.738Z,992.90
2022-08-17T19:11:34.666Z,993.02
2022-08-17T19:16:34.621Z,993.05
2022-08-17T19:21:34.573Z,993.13
2022-08-17T19:26:50.625Z,993.07
2022-08-17T19:31:35.532Z,993.08
2022-08-17T19:36:34.406Z,993.04
2022-08-17T19:41:34.362Z,993.08
2022-08-17T19:46:35.669Z,993.02
2022-08-17T19:51:34.242Z,993.09
2022-08-17T19:56:34.194Z,993.13
2022-08-17T20:01:34.981Z,993.14
2022-08-17T20:06:34.071Z,993.14
2022-08-17T20:11:34.010Z,993.22
2022-08-17T20:16:33.964Z,993.14
2022-08-17T20:21:33.911Z,993.11
2022-08-17T20:26:33.854Z,993.08
2022-08-17T20:31:33.802Z,993.17
2022-08-17T20:36:33.744Z,993.27
2022-08-17T20:41:33.693Z,993.31
2022-08-17T20:46:33.624Z,993.34
2022-08-17T20:51:33.574Z,993.34
2022-08-17T20:56:33.516Z,993.34
2022-08-17T21:01:33.590Z,993.30
2022-08-17T21:06:33.413Z,993.35
2022-08-17T21:11:59.970Z,993.43
2022-08-17T21:16:34.302Z,993.35
2022-08-17T21:21:33.231Z,993.33
2022-08-17T21:26:33.188Z,993.29
2022-08-17T21:31:34.394Z,993.30
2022-08-17T21:36:33.110Z,993.32
2022-08-17T21:41:33.027Z,993.39
2022-08-17T21:46:32.974Z,993.36
2022-08-17T21:51:32.926Z,993.44
2022-08-17T21:56:32.860Z,993.50
2022-08-17T22:01:32.867Z,993.51
2022-08-17T22:06:32.759Z,993.51
2022-08-17T22:11:32.707Z,993.66
2022-08-17T22:16:32.650Z,993.63
2022-08-17T22:21:32.684Z,993.64
2022-08-17T22:26:32.554Z,993.48
2022-08-17T22:31:32.473Z,993.44
2022-08-17T22:36:32.440Z,993.60
2022-08-17T22:41:32.373Z,993.65
2022-08-17T22:46:32.322Z,993.65
2022-08-17T22:51:32.267Z,993.58
2022-08-17T22:56:32.219Z,993.56
2022-08-17T23:01:32.200Z,993.63
2022-08-17T23:06:32.099Z,993.65
2022-08-17T23:11:36.556Z,993.68
2022-08-17T23:16:32.999Z,993.72
2022-08-17T23:21:31.946Z,993.68
2022-08-17T23:26:31.889Z,993.64
